createdAt,value
2022-08-02T00:00:18.932Z,85.33
2022-08-02T00:02:50.792Z,84.39
2022-08-02T00:05:22.305Z,83.85
2022-08-02T00:07:54.182Z,84.17
2022-08-02T00:10:25.748Z,84.58
2022-08-02T00:12:57.614Z,84.59
2022-08-02T00:15:29.138Z,84.34
2022-08-02T00:18:01.005Z,84.25
2022-08-02T00:20:32.627Z,83.07
2022-08-02T00:23:04.354Z,83.96
2022-08-02T00:25:35.911Z,83.01
2022-08-02T00:28:28.351Z,82.46
2022-08-02T00:31:00.293Z,82.21
2022-08-02T00:34:26.389Z,82.31
2022-08-02T00:36:23.722Z,82.69
2022-08-02T00:38:55.239Z,82.57
2022-08-02T00:41:27.063Z,82.00
2022-08-02T00:43:58.595Z,80.82
2022-08-02T00:46:30.495Z,81.12
2022-08-02T00:49:02.192Z,80.78
2022-08-02T00:51:34.145Z,81.73
2022-08-02T00:54:05.672Z,80.33
2022-08-02T00:56:37.554Z,79.44
2022-08-02T00:59:09.062Z,79.82
2022-08-02T01:01:55.909Z,78.83
2022-08-02T01:04:30.077Z,78.92
2022-08-02T01:07:13.406Z,79.18
2022-08-02T01:09:45.402Z,76.80
2022-08-02T01:12:17.897Z,77.66
2022-08-02T01:14:49.500Z,76.81
2022-08-02T01:17:21.480Z,75.40
2022-08-02T01:19:52.995Z,75.26
2022-08-02T01:22:58.072Z,74.86
2022-08-02T01:25:16.537Z,75.71
2022-08-02T01:27:48.598Z,75.62
2022-08-02T01:30:20.128Z,74.99
2022-08-02T01:32:52.018Z,73.87
2022-08-02T01:35:23.589Z,75.26
2022-08-02T01:37:55.408Z,73.43
2022-08-02T01:40:26.928Z,74.03
2022-08-02T01:42:59.125Z,73.21
2022-08-02T01:45:30.702Z,74.75
2022-08-02T01:48:02.609Z,74.31
2022-08-02T01:50:34.144Z,74.16
2022-08-02T01:53:06.040Z,73.45
2022-08-02T01:55:56.964Z,73.66
2022-08-02T01:58:30.142Z,72.21
2022-08-02T02:01:02.053Z,72.37
2022-08-02T02:03:33.874Z,72.92
2022-08-02T02:06:22.541Z,72.15
2022-08-02T02:08:54.080Z,72.38
2022-08-02T02:12:09.351Z,72.50
2022-08-02T02:14:17.685Z,72.32
2022-08-02T02:16:49.801Z,72.44
2022-08-02T02:19:22.729Z,72.27
2022-08-02T02:21:54.905Z,72.56
2022-08-02T02:24:28.864Z,72.33
2022-08-02T02:27:02.458Z,72.53
2022-08-02T02:29:33.987Z,72.80
2022-08-02T02:32:06.163Z,73.17
2022-08-02T02:34:37.803Z,73.39
2022-08-02T02:37:09.395Z,73.55
2022-08-02T02:39:40.915Z,73.54
2022-08-02T02:42:13.188Z,73.69
2022-08-02T02:44:45.176Z,74.03
2022-08-02T02:47:16.995Z,74.25
2022-08-02T02:49:49.006Z,74.22
2022-08-02T02:52:20.979Z,74.07
2022-08-02T02:54:52.564Z,74.53
2022-08-02T02:57:24.090Z,74.21
2022-08-02T02:59:55.599Z,75.16
2022-08-02T03:02:27.612Z,75.31
2022-08-02T03:05:01.507Z,75.08
2022-08-02T03:07:33.493Z,75.31
2022-08-02T03:10:04.993Z,75.27
2022-08-02T03:12:37.050Z,74.80
2022-08-02T03:15:09.284Z,74.70
2022-08-02T03:17:41.142Z,74.43
2022-08-02T03:20:12.670Z,74.38
2022-08-02T03:22:44.982Z,74.48
2022-08-02T03:25:16.504Z,74.30
2022-08-02T03:27:48.463Z,74.21
2022-08-02T03:30:20.008Z,74.74
2022-08-02T03:32:52.091Z,75.26
2022-08-02T03:35:24.461Z,76.06
2022-08-02T03:37:56.846Z,75.35
2022-08-02T03:40:28.342Z,73.31
2022-08-02T03:43:00.166Z,71.59
2022-08-02T03:45:31.684Z,70.85
2022-08-02T03:48:03.335Z,75.74
2022-08-02T03:50:54.859Z,74.48
2022-08-02T03:53:26.727Z,74.76
2022-08-02T03:55:58.219Z,75.00
2022-08-02T03:58:30.020Z,71.28
2022-08-02T04:01:01.588Z,71.76
2022-08-02T04:03:33.604Z,73.33
2022-08-02T04:06:05.190Z,72.21
2022-08-02T04:08:38.734Z,75.15
2022-08-02T04:11:29.674Z,75.53
2022-08-02T04:14:01.180Z,75.43
2022-08-02T04:16:33.046Z,73.92
2022-08-02T04:19:04.640Z,75.28
2022-08-02T04:21:50.187Z,75.84
2022-08-02T04:24:24.727Z,76.23
2022-08-02T04:26:57.943Z,76.24
2022-08-02T04:29:38.444Z,76.37
2022-08-02T04:32:10.526Z,76.59
2022-08-02T04:34:47.459Z,75.99
2022-08-02T04:37:26.307Z,76.34
2022-08-02T04:39:57.804Z,76.15
2022-08-02T04:42:29.640Z,75.52
2022-08-02T04:45:03.000Z,75.15
2022-08-02T04:48:02.212Z,74.46
2022-08-02T04:50:26.361Z,74.65
2022-08-02T04:52:58.219Z,74.17
2022-08-02T04:55:30.054Z,74.33
2022-08-02T04:58:06.701Z,74.85
2022-08-02T05:00:45.264Z,74.42
2022-08-02T05:03:17.145Z,74.23
2022-08-02T05:05:48.714Z,73.69
2022-08-02T05:08:20.654Z,74.34
2022-08-02T05:10:52.239Z,73.44
2022-08-02T05:13:24.102Z,72.63
2022-08-02T05:15:55.592Z,72.04
2022-08-02T05:18:28.779Z,71.19
2022-08-02T05:21:00.284Z,70.91
2022-08-02T05:23:32.066Z,70.63
2022-08-02T05:26:04.871Z,69.97
2022-08-02T05:28:36.668Z,66.13
2022-08-02T05:31:13.407Z,68.96
2022-08-02T05:33:45.428Z,69.15
2022-08-02T05:36:16.928Z,68.24
2022-08-02T05:38:51.237Z,69.47
2022-08-02T05:41:22.730Z,69.73
2022-08-02T05:43:54.569Z,67.97
2022-08-02T05:46:26.078Z,67.93
2022-08-02T05:48:57.978Z,66.61
2022-08-02T05:51:29.595Z,60.78
2022-08-02T05:54:04.307Z,65.58
2022-08-02T05:56:36.361Z,64.27
2022-08-02T05:59:08.240Z,61.49
2022-08-02T06:01:42.972Z,61.82
2022-08-02T06:04:14.890Z,62.35
2022-08-02T06:06:46.396Z,63.93
2022-08-02T06:09:25.174Z,62.90
2022-08-02T06:12:11.503Z,61.10
2022-08-02T06:14:43.521Z,58.92
2022-08-02T06:17:20.495Z,57.26
2022-08-02T06:19:52.829Z,57.21
2022-08-02T06:22:31.969Z,56.96
2022-08-02T06:25:48.157Z,56.97
2022-08-02T06:28:04.648Z,57.30
2022-08-02T06:30:43.132Z,57.83
2022-08-02T06:33:15.128Z,56.36
2022-08-02T06:35:46.728Z,55.79
2022-08-02T06:38:19.227Z,55.24
2022-08-02T06:40:50.756Z,55.19
2022-08-02T06:43:22.606Z,54.74
2022-08-02T06:45:54.136Z,54.71
2022-08-02T06:48:26.133Z,54.21
2022-08-02T06:50:57.625Z,55.28
2022-08-02T06:53:29.449Z,55.85
2022-08-02T06:56:00.944Z,55.86
2022-08-02T06:58:32.752Z,53.69
2022-08-02T07:01:07.175Z,55.46
2022-08-02T07:03:39.097Z,54.37
2022-08-02T07:06:11.682Z,52.98
2022-08-02T07:08:54.787Z,53.98
2022-08-02T07:11:35.035Z,53.88
2022-08-02T07:14:06.935Z,53.18
2022-08-02T07:16:38.427Z,52.56
2022-08-02T07:19:10.279Z,52.01
2022-08-02T07:21:57.577Z,52.78
2022-08-02T07:24:32.717Z,51.58
2022-08-02T07:27:12.561Z,50.34
2022-08-02T07:29:46.277Z,51.98
2022-08-02T07:32:19.278Z,53.32
2022-08-02T07:34:53.095Z,52.86
2022-08-02T07:37:53.814Z,51.01
2022-08-02T07:40:19.816Z,49.63
2022-08-02T07:42:56.416Z,47.83
2022-08-02T07:45:31.153Z,46.43
2022-08-02T07:48:03.173Z,47.96
2022-08-02T07:50:34.681Z,46.03
2022-08-02T07:53:06.556Z,45.42
2022-08-02T07:55:40.437Z,45.52
2022-08-02T07:58:13.623Z,46.44
2022-08-02T08:00:45.409Z,44.39
2022-08-02T08:03:17.219Z,43.36
2022-08-02T08:05:48.768Z,42.87
2022-08-02T08:08:20.569Z,43.82
2022-08-02T08:10:52.121Z,45.31
2022-08-02T08:13:23.944Z,44.78
2022-08-02T08:15:55.498Z,43.54
2022-08-02T08:18:27.399Z,43.94
2022-08-02T08:20:58.900Z,43.35
2022-08-02T08:23:32.662Z,43.45
2022-08-02T08:26:04.172Z,42.88
2022-08-02T08:28:35.997Z,41.97
2022-08-02T08:31:07.512Z,41.91
2022-08-02T08:33:39.331Z,42.64
2022-08-02T08:36:10.834Z,42.42
2022-08-02T08:38:42.805Z,41.18
2022-08-02T08:41:14.313Z,41.67
2022-08-02T08:43:50.089Z,41.67
2022-08-02T08:46:25.119Z,41.71
2022-08-02T08:48:57.112Z,41.87
2022-08-02T08:51:28.622Z,41.86
2022-08-02T08:54:04.283Z,41.90
2022-08-02T08:56:35.845Z,42.27
2022-08-02T08:59:07.705Z,42.47
2022-08-02T09:01:50.239Z,41.71
2022-08-02T09:04:22.820Z,40.81
2022-08-02T09:06:55.582Z,39.84
2022-08-02T09:09:27.476Z,39.68
2022-08-02T09:11:58.976Z,40.32
2022-08-02T09:14:32.948Z,38.62
2022-08-02T09:17:04.532Z,39.53
2022-08-02T09:19:37.313Z,39.83
2022-08-02T09:22:09.208Z,39.78
2022-08-02T09:24:41.408Z,39.53
2022-08-02T09:27:13.044Z,39.13
2022-08-02T09:30:11.538Z,40.57
2022-08-02T09:32:36.263Z,39.59
2022-08-02T09:35:08.199Z,39.41
2022-08-02T09:37:39.694Z,37.46
2022-08-02T09:40:12.515Z,37.01
2022-08-02T09:42:44.019Z,36.76
2022-08-02T09:45:15.899Z,37.22
2022-08-02T09:47:47.413Z,37.69
2022-08-02T09:50:19.260Z,38.62
2022-08-02T09:52:50.813Z,38.23
2022-08-02T09:55:22.615Z,37.05
2022-08-02T09:57:54.171Z,37.59
2022-08-02T10:00:43.427Z,36.49
2022-08-02T10:03:21.457Z,36.77
2022-08-02T10:05:56.119Z,35.13
2022-08-02T10:08:28.981Z,35.88
2022-08-02T10:11:00.876Z,35.17
2022-08-02T10:13:32.484Z,34.56
2022-08-02T10:16:04.337Z,33.68
2022-08-02T10:18:39.296Z,34.69
2022-08-02T10:21:12.467Z,33.64
2022-08-02T10:23:43.959Z,33.71
2022-08-02T10:26:16.101Z,34.31
2022-08-02T10:28:48.255Z,35.10
2022-08-02T10:31:20.235Z,35.37
2022-08-02T10:33:53.356Z,36.43
2022-08-02T10:36:27.415Z,34.19
2022-08-02T10:38:59.293Z,33.78
2022-08-02T10:41:30.809Z,34.04
2022-08-02T10:44:04.075Z,36.01
2022-08-02T10:46:35.669Z,37.33
2022-08-02T10:49:37.418Z,38.19
2022-08-02T10:52:01.974Z,38.35
2022-08-02T10:54:33.770Z,38.33
2022-08-02T10:57:05.286Z,36.77
2022-08-02T10:59:37.154Z,35.88
2022-08-02T11:02:08.835Z,37.19
2022-08-02T11:04:40.820Z,36.33
2022-08-02T11:07:14.008Z,35.51
2022-08-02T11:09:45.968Z,34.95
2022-08-02T11:12:17.466Z,35.28
2022-08-02T11:14:50.235Z,34.46
2022-08-02T11:17:22.018Z,33.89
2022-08-02T11:19:53.881Z,33.30
2022-08-02T11:22:26.074Z,32.58
2022-08-02T11:24:58.228Z,33.72
2022-08-02T11:27:31.249Z,34.32
2022-08-02T11:30:03.100Z,33.08
2022-08-02T11:32:36.219Z,33.93
2022-08-02T11:35:08.085Z,33.31
2022-08-02T11:37:39.611Z,31.98
2022-08-02T11:40:19.323Z,32.12
2022-08-02T11:42:53.558Z,30.84
2022-08-02T11:45:29.417Z,30.68
2022-08-02T11:48:01.338Z,32.17
2022-08-02T11:50:33.308Z,31.30
2022-08-02T11:53:05.035Z,32.13
2022-08-02T11:55:36.885Z,31.11
2022-08-02T11:58:11.421Z,32.27
2022-08-02T12:00:47.280Z,35.20
2022-08-02T12:03:19.921Z,33.42
2022-08-02T12:06:05.454Z,33.51
2022-08-02T12:08:38.301Z,32.21
2022-08-02T12:11:10.145Z,32.58
2022-08-02T12:13:41.986Z,31.75
2022-08-02T12:16:32.855Z,31.69
2022-08-02T12:19:20.075Z,31.56
2022-08-02T12:21:51.562Z,30.92
2022-08-02T12:24:23.525Z,31.51
2022-08-02T12:26:55.568Z,33.28
2022-08-02T12:29:57.961Z,33.46
2022-08-02T12:32:19.059Z,33.44
2022-08-02T12:34:51.015Z,35.03
2022-08-02T12:37:22.536Z,33.83
2022-08-02T12:39:54.312Z,34.20
2022-08-02T12:42:25.867Z,35.27
2022-08-02T12:45:00.798Z,36.29
2022-08-02T12:47:36.171Z,34.02
2022-08-02T12:50:08.291Z,33.40
2022-08-02T12:52:39.805Z,31.58
2022-08-02T12:55:11.720Z,32.47
2022-08-02T12:57:43.218Z,31.40
2022-08-02T13:00:14.750Z,31.68
2022-08-02T13:02:48.150Z,31.83
2022-08-02T13:05:20.092Z,32.85
2022-08-02T13:07:51.716Z,31.02
2022-08-02T13:10:23.563Z,30.48
2022-08-02T13:12:55.058Z,29.68
2022-08-02T13:15:49.995Z,29.20
2022-08-02T13:18:19.023Z,29.82
2022-08-02T13:20:50.895Z,31.04
2022-08-02T13:23:23.263Z,30.12
2022-08-02T13:25:55.184Z,30.14
2022-08-02T13:28:27.471Z,30.61
2022-08-02T13:31:14.901Z,29.09
2022-08-02T13:33:50.942Z,31.59
2022-08-02T13:36:22.791Z,31.34
2022-08-02T13:38:54.297Z,28.84
2022-08-02T13:41:26.159Z,28.92
2022-08-02T13:44:06.165Z,29.81
2022-08-02T13:46:45.340Z,29.46
2022-08-02T13:49:19.770Z,28.87
2022-08-02T13:51:51.953Z,30.21
2022-08-02T13:54:23.935Z,30.04
2022-08-02T13:56:55.467Z,30.84
2022-08-02T13:59:56.823Z,30.80
2022-08-02T14:02:19.188Z,29.93
2022-08-02T14:04:51.049Z,29.55
2022-08-02T14:07:22.559Z,28.69
2022-08-02T14:09:54.465Z,27.50
2022-08-02T14:12:25.974Z,29.52
2022-08-02T14:14:57.504Z,30.31
2022-08-02T14:17:29.000Z,29.04
2022-08-02T14:20:00.550Z,27.64
2022-08-02T14:22:32.033Z,28.31
2022-08-02T14:25:08.996Z,27.83
2022-08-02T14:27:41.051Z,29.70
2022-08-02T14:30:13.012Z,30.12
2022-08-02T14:32:44.586Z,30.59
2022-08-02T14:35:16.437Z,30.13
2022-08-02T14:37:47.929Z,30.48
2022-08-02T14:40:30.918Z,30.51
2022-08-02T14:43:03.380Z,29.91
2022-08-02T14:45:40.991Z,28.59
2022-08-02T14:48:13.053Z,29.06
2022-08-02T14:50:44.853Z,28.19
2022-08-02T14:53:16.338Z,27.99
2022-08-02T14:55:48.252Z,29.60
2022-08-02T14:58:19.758Z,29.03
2022-08-02T15:00:51.263Z,28.85
2022-08-02T15:03:24.253Z,29.81
2022-08-02T15:05:55.898Z,29.28
2022-08-02T15:08:27.408Z,28.01
2022-08-02T15:10:59.249Z,29.12
2022-08-02T15:13:30.756Z,28.54
2022-08-02T15:16:03.649Z,28.54
2022-08-02T15:18:35.151Z,27.11
2022-08-02T15:21:36.545Z,27.50
2022-08-02T15:23:58.625Z,29.01
2022-08-02T15:26:30.582Z,29.11
2022-08-02T15:29:02.096Z,30.43
2022-08-02T15:31:33.855Z,29.95
2022-08-02T15:34:06.073Z,30.63
2022-08-02T15:36:37.594Z,31.11
2022-08-02T15:39:09.181Z,32.31
2022-08-02T15:41:41.036Z,32.83
2022-08-02T15:44:13.936Z,33.39
2022-08-02T15:46:45.788Z,32.54
2022-08-02T15:49:17.313Z,32.00
2022-08-02T15:51:49.299Z,31.61
2022-08-02T15:54:20.842Z,32.60
2022-08-02T15:56:52.658Z,32.00
2022-08-02T15:59:24.348Z,32.23
2022-08-02T16:01:56.328Z,32.29
2022-08-02T16:04:27.921Z,30.71
2022-08-02T16:07:01.509Z,30.68
2022-08-02T16:09:33.290Z,30.97
2022-08-02T16:12:05.173Z,31.16
2022-08-02T16:14:36.667Z,31.05
2022-08-02T16:17:08.586Z,32.39
2022-08-02T16:19:49.090Z,32.38
2022-08-02T16:22:21.715Z,31.50
2022-08-02T16:24:53.264Z,32.17
2022-08-02T16:27:25.100Z,31.98
2022-08-02T16:29:56.605Z,31.74
2022-08-02T16:32:28.151Z,31.38
2022-08-02T16:35:07.092Z,30.35
2022-08-02T16:37:51.829Z,30.98
2022-08-02T16:40:24.282Z,31.89
2022-08-02T16:42:56.105Z,31.75
2022-08-02T16:45:27.645Z,32.76
2022-08-02T16:48:03.684Z,32.91
2022-08-02T16:50:37.690Z,32.89
2022-08-02T16:53:11.199Z,33.04
2022-08-02T16:55:51.917Z,32.47
2022-08-02T16:58:24.960Z,32.89
2022-08-02T17:00:56.946Z,32.54
2022-08-02T17:03:55.538Z,32.57
2022-08-02T17:06:21.141Z,33.22
2022-08-02T17:08:57.927Z,34.47
2022-08-02T17:11:31.017Z,33.34
2022-08-02T17:14:02.710Z,33.81
2022-08-02T17:16:35.618Z,33.71
2022-08-02T17:19:07.787Z,33.97
2022-08-02T17:21:39.664Z,34.26
2022-08-02T17:24:11.182Z,35.64
2022-08-02T17:26:43.696Z,35.34
2022-08-02T17:29:17.764Z,34.90
2022-08-02T17:32:12.532Z,34.89
2022-08-02T17:34:56.354Z,35.48
2022-08-02T17:37:32.226Z,36.28
2022-08-02T17:40:04.499Z,35.80
2022-08-02T17:42:36.411Z,35.50
2022-08-02T17:45:16.771Z,35.93
2022-08-02T17:48:04.039Z,36.48
2022-08-02T17:50:37.278Z,36.39
2022-08-02T17:53:09.376Z,37.16
2022-08-02T17:55:42.666Z,36.58
2022-08-02T17:58:33.196Z,37.17
2022-08-02T18:01:05.472Z,37.10
2022-08-02T18:03:55.349Z,37.77
2022-08-02T18:06:27.367Z,38.12
2022-08-02T18:08:58.884Z,37.95
2022-08-02T18:11:52.495Z,38.65
2022-08-02T18:14:22.455Z,38.94
2022-08-02T18:16:56.314Z,38.60
2022-08-02T18:19:33.213Z,39.25
2022-08-02T18:22:15.742Z,39.50
2022-08-02T18:24:47.965Z,39.72
2022-08-02T18:27:21.829Z,39.76
2022-08-02T18:30:04.361Z,40.18
2022-08-02T18:33:01.154Z,40.72
2022-08-02T18:35:29.438Z,41.58
2022-08-02T18:38:03.627Z,41.66
2022-08-02T18:40:35.486Z,41.79
2022-08-02T18:43:07.832Z,42.26
2022-08-02T18:46:05.867Z,42.89
2022-08-02T18:48:31.319Z,43.49
2022-08-02T18:51:03.261Z,44.06
2022-08-02T18:53:41.477Z,43.99
2022-08-02T18:56:20.224Z,44.16
2022-08-02T18:58:57.283Z,43.76
2022-08-02T19:01:33.562Z,44.95
2022-08-02T19:04:08.634Z,45.07
2022-08-02T19:06:40.633Z,45.15
2022-08-02T19:09:13.913Z,45.53
2022-08-02T19:11:47.478Z,46.97
2022-08-02T19:14:27.846Z,47.67
2022-08-02T19:17:16.067Z,49.13
2022-08-02T19:19:52.108Z,48.72
2022-08-02T19:22:27.436Z,47.91
2022-08-02T19:25:01.779Z,48.99
2022-08-02T19:27:34.529Z,48.36
2022-08-02T19:30:07.726Z,47.71
2022-08-02T19:32:59.385Z,47.85
2022-08-02T19:35:34.603Z,49.14
2022-08-02T19:38:06.897Z,48.25
2022-08-02T19:40:38.983Z,48.77
2022-08-02T19:44:24.791Z,49.54
2022-08-02T19:46:03.407Z,47.89
2022-08-02T19:48:34.933Z,47.78
2022-08-02T19:51:07.950Z,47.41
2022-08-02T19:53:47.005Z,47.76
2022-08-02T19:56:25.105Z,48.40
2022-08-02T19:59:00.322Z,48.18
2022-08-02T20:01:38.797Z,48.70
2022-08-02T20:04:12.929Z,48.85
2022-08-02T20:06:47.662Z,49.09
2022-08-02T20:09:21.244Z,49.72
2022-08-02T20:11:54.707Z,51.12
2022-08-02T20:14:27.976Z,52.08
2022-08-02T20:16:59.926Z,50.70
2022-08-02T20:19:31.766Z,51.35
2022-08-02T20:22:07.510Z,51.40
2022-08-02T20:24:42.104Z,52.10
2022-08-02T20:27:17.032Z,51.35
2022-08-02T20:29:55.462Z,52.85
2022-08-02T20:32:27.290Z,52.47
2022-08-02T20:34:59.971Z,51.98
2022-08-02T20:37:59.343Z,52.87
2022-08-02T20:40:24.167Z,52.87
2022-08-02T20:42:56.056Z,53.06
2022-08-02T20:45:28.438Z,52.27
2022-08-02T20:48:05.520Z,51.86
2022-08-02T20:50:49.250Z,51.39
2022-08-02T20:53:24.151Z,51.57
2022-08-02T20:55:57.789Z,52.57
2022-08-02T20:58:31.098Z,53.78
2022-08-02T21:01:02.736Z,53.24
2022-08-02T21:03:39.452Z,53.08
2022-08-02T21:06:15.050Z,54.35
2022-08-02T21:08:48.873Z,53.23
2022-08-02T21:11:20.693Z,54.94
2022-08-02T21:14:06.518Z,53.68
2022-08-02T21:16:41.083Z,53.95
2022-08-02T21:19:12.752Z,54.10
2022-08-02T21:21:45.255Z,54.68
2022-08-02T21:24:17.586Z,54.16
2022-08-02T21:26:56.484Z,54.35
2022-08-02T21:29:28.178Z,54.60
2022-08-02T21:32:05.249Z,54.40
2022-08-02T21:34:36.816Z,54.73
2022-08-02T21:37:10.017Z,54.70
2022-08-02T21:39:41.840Z,54.57
2022-08-02T21:42:16.307Z,54.67
2022-08-02T21:44:54.275Z,55.16
2022-08-02T21:47:26.256Z,55.51
2022-08-02T21:50:09.466Z,55.64
2022-08-02T21:52:52.449Z,54.92
2022-08-02T21:56:00.270Z,55.89
2022-08-02T21:58:15.871Z,56.84
2022-08-02T22:00:51.611Z,56.41
2022-08-02T22:03:23.827Z,56.61
2022-08-02T22:05:55.358Z,56.60
2022-08-02T22:08:27.242Z,56.85
2022-08-02T22:11:03.210Z,58.05
2022-08-02T22:13:38.611Z,57.80
2022-08-02T22:16:27.447Z,56.37
2022-08-02T22:18:59.675Z,56.12
2022-08-02T22:21:33.653Z,56.25
2022-08-02T22:24:30.286Z,57.83
2022-08-02T22:27:02.570Z,57.54
2022-08-02T22:29:34.075Z,57.04
2022-08-02T22:32:06.842Z,57.53
2022-08-02T22:34:52.199Z,58.27
2022-08-02T22:38:14.804Z,59.43
2022-08-02T22:40:15.838Z,59.47
2022-08-02T22:42:49.048Z,60.94
2022-08-02T22:45:20.829Z,58.38
2022-08-02T22:47:52.656Z,58.21
2022-08-02T22:50:25.945Z,58.00
2022-08-02T22:52:57.902Z,58.42
2022-08-02T22:55:32.588Z,57.95
2022-08-02T22:58:04.528Z,61.20
2022-08-02T23:00:36.796Z,60.06
2022-08-02T23:03:08.907Z,60.04
2022-08-02T23:05:40.545Z,59.99
2022-08-02T23:08:12.612Z,63.45
2022-08-02T23:10:44.167Z,62.65
2022-08-02T23:13:16.016Z,60.96
2022-08-02T23:16:06.196Z,59.60
2022-08-02T23:18:56.659Z,60.61
2022-08-02T23:22:00.837Z,60.12
2022-08-02T23:24:24.718Z,61.61
2022-08-02T23:26:56.221Z,63.22
2022-08-02T23:29:27.757Z,63.76
2022-08-02T23:31:59.293Z,61.50
2022-08-02T23:34:32.810Z,60.44
2022-08-02T23:37:04.652Z,60.89
2022-08-02T23:39:36.139Z,61.31
2022-08-02T23:42:08.113Z,62.20
2022-08-02T23:44:39.599Z,64.72
2022-08-02T23:47:11.537Z,64.06
2022-08-02T23:49:43.117Z,63.22
2022-08-02T23:52:15.310Z,62.21
2022-08-02T23:54:47.009Z,63.27
2022-08-02T23:57:20.026Z,64.61
2022-08-02T23:59:52.988Z,64.62
